createdAt,value
2023-04-06T00:01:31.544Z,9.30
2023-04-06T00:03:58.545Z,9.23
2023-04-06T00:06:25.679Z,9.60
2023-04-06T00:08:53.313Z,10.40
2023-04-06T00:11:21.297Z,10.07
2023-04-06T00:13:48.135Z,10.07
2023-04-06T00:16:14.983Z,11.10
2023-04-06T00:18:42.111Z,9.47
2023-04-06T00:21:09.149Z,10.23
2023-04-06T00:23:36.206Z,10.20
2023-04-06T00:26:03.032Z,9.57
2023-04-06T00:28:31.116Z,10.57
2023-04-06T00:30:58.022Z,9.93
2023-04-06T00:33:25.206Z,9.97
2023-04-06T00:35:52.208Z,9.93
2023-04-06T00:38:19.347Z,10.33
2023-04-06T00:40:46.408Z,9.37
2023-04-06T00:43:13.933Z,9.87
2023-04-06T00:45:42.004Z,9.67
2023-04-06T00:48:10.149Z,8.97
2023-04-06T00:50:38.478Z,9.90
2023-04-06T00:53:05.483Z,10.50
2023-04-06T00:55:32.408Z,9.60
2023-04-06T00:58:01.794Z,10.00
2023-04-06T01:00:33.161Z,10.13
2023-04-06T01:03:02.427Z,10.07
2023-04-06T01:05:41.388Z,8.80
2023-04-06T01:08:14.404Z,9.40
2023-04-06T01:10:41.469Z,9.40
2023-04-06T01:13:14.661Z,9.03
2023-04-06T01:15:52.486Z,9.73
2023-04-06T01:18:28.095Z,9.20
2023-04-06T01:21:04.848Z,10.07
2023-04-06T01:23:32.147Z,9.50
2023-04-06T01:25:59.036Z,8.90
2023-04-06T01:28:30.719Z,9.10
2023-04-06T01:31:09.800Z,9.87
2023-04-06T01:33:49.996Z,9.80
2023-04-06T01:36:20.074Z,9.90
2023-04-06T01:38:53.452Z,8.67
2023-04-06T01:41:24.436Z,8.27
2023-04-06T01:43:55.812Z,9.10
2023-04-06T01:46:27.309Z,9.90
2023-04-06T01:48:54.598Z,9.13
2023-04-06T01:51:50.860Z,10.27
2023-04-06T01:54:17.812Z,8.43
2023-04-06T01:57:11.641Z,8.60
2023-04-06T01:59:45.577Z,9.67
2023-04-06T02:02:40.460Z,9.00
2023-04-06T02:05:13.749Z,9.63
2023-04-06T02:07:41.535Z,9.23
2023-04-06T02:10:14.013Z,10.20
2023-04-06T02:12:41.583Z,9.03
2023-04-06T02:15:14.309Z,9.73
2023-04-06T02:17:42.980Z,9.43
2023-04-06T02:20:10.484Z,8.87
2023-04-06T02:22:37.479Z,9.90
2023-04-06T02:25:04.571Z,9.63
2023-04-06T02:27:31.454Z,10.27
2023-04-06T02:29:58.868Z,9.63
2023-04-06T02:32:26.087Z,8.97
2023-04-06T02:34:53.559Z,9.43
2023-04-06T02:37:22.057Z,10.50
2023-04-06T02:39:48.931Z,9.50
2023-04-06T02:42:16.530Z,9.20
2023-04-06T02:44:45.400Z,8.80
2023-04-06T02:47:13.066Z,9.70
2023-04-06T02:49:43.095Z,9.40
2023-04-06T02:52:09.945Z,9.53
2023-04-06T02:54:37.274Z,9.90
2023-04-06T02:57:04.675Z,9.10
2023-04-06T02:59:37.968Z,9.57
2023-04-06T03:02:22.747Z,9.53
2023-04-06T03:04:50.095Z,9.20
2023-04-06T03:07:26.208Z,9.10
2023-04-06T03:09:53.027Z,8.67
2023-04-06T03:12:19.784Z,8.87
2023-04-06T03:15:06.930Z,9.13
2023-04-06T03:17:34.039Z,9.50
2023-04-06T03:20:04.964Z,9.53
2023-04-06T03:22:32.779Z,9.57
2023-04-06T03:25:03.038Z,9.00
2023-04-06T03:27:31.799Z,9.33
2023-04-06T03:29:59.559Z,10.00
2023-04-06T03:32:32.407Z,9.87
2023-04-06T03:34:59.189Z,9.67
2023-04-06T03:37:26.032Z,9.60
2023-04-06T03:39:56.740Z,9.93
2023-04-06T03:42:25.483Z,9.77
2023-04-06T03:44:57.146Z,9.63
2023-04-06T03:47:24.558Z,8.87
2023-04-06T03:49:55.105Z,9.37
2023-04-06T03:52:24.038Z,8.97
2023-04-06T03:54:52.321Z,8.60
2023-04-06T03:57:19.205Z,9.33
2023-04-06T03:59:46.025Z,9.17
2023-04-06T04:02:13.217Z,9.13
2023-04-06T04:04:40.668Z,9.33
2023-04-06T04:07:07.494Z,9.10
2023-04-06T04:09:34.955Z,9.00
2023-04-06T04:12:01.781Z,9.00
2023-04-06T04:14:29.652Z,9.33
2023-04-06T04:16:56.786Z,9.00
2023-04-06T04:19:24.329Z,9.13
2023-04-06T04:21:51.161Z,8.83
2023-04-06T04:24:24.479Z,9.60
2023-04-06T04:26:51.511Z,9.07
2023-04-06T04:29:22.239Z,9.07
2023-04-06T04:31:51.029Z,9.13
2023-04-06T04:34:18.242Z,9.10
2023-04-06T04:36:45.295Z,9.40
2023-04-06T04:39:19.487Z,8.93
2023-04-06T04:41:51.166Z,8.97
2023-04-06T04:44:18.030Z,8.87
2023-04-06T04:46:44.912Z,9.67
2023-04-06T04:49:15.585Z,9.30
2023-04-06T04:51:43.390Z,9.30
2023-04-06T04:54:18.783Z,9.23
2023-04-06T04:56:46.637Z,8.27
2023-04-06T04:59:23.786Z,9.73
2023-04-06T05:01:59.636Z,8.87
2023-04-06T05:04:36.800Z,9.90
2023-04-06T05:07:08.977Z,9.20
2023-04-06T05:09:38.055Z,9.77
2023-04-06T05:12:05.742Z,9.17
2023-04-06T05:14:37.969Z,9.23
2023-04-06T05:17:10.996Z,9.70
2023-04-06T05:19:37.905Z,9.87
2023-04-06T05:22:04.705Z,8.93
2023-04-06T05:24:36.194Z,9.57
2023-04-06T05:27:06.029Z,9.23
2023-04-06T05:29:34.972Z,9.67
2023-04-06T05:32:03.286Z,9.60
2023-04-06T05:34:30.403Z,8.83
2023-04-06T05:36:58.037Z,9.57
2023-04-06T05:39:25.942Z,9.47
2023-04-06T05:41:54.100Z,9.57
2023-04-06T05:44:31.818Z,9.47
2023-04-06T05:47:09.203Z,9.10
2023-04-06T05:49:38.319Z,10.67
2023-04-06T05:52:14.578Z,8.90
2023-04-06T05:54:45.380Z,9.13
2023-04-06T05:57:12.262Z,9.80
2023-04-06T05:59:40.161Z,8.97
2023-04-06T06:02:07.440Z,9.80
2023-04-06T06:04:39.241Z,9.37
2023-04-06T06:07:06.521Z,9.90
2023-04-06T06:09:39.321Z,9.20
2023-04-06T06:12:21.947Z,9.67
2023-04-06T06:14:50.506Z,9.97
2023-04-06T06:17:17.768Z,9.47
2023-04-06T06:19:47.095Z,9.60
2023-04-06T06:22:14.014Z,8.80
2023-04-06T06:24:44.866Z,10.47
2023-04-06T06:27:12.575Z,9.17
2023-04-06T06:29:40.976Z,9.40
2023-04-06T06:32:10.061Z,9.20
2023-04-06T06:34:38.044Z,10.23
2023-04-06T06:37:07.151Z,9.30
2023-04-06T06:39:35.163Z,8.67
2023-04-06T06:42:02.460Z,9.83
2023-04-06T06:44:55.869Z,9.50
2023-04-06T06:47:24.467Z,9.17
2023-04-06T06:49:51.511Z,9.27
2023-04-06T06:52:18.756Z,9.80
2023-04-06T06:54:45.712Z,9.00
2023-04-06T06:57:12.642Z,9.53
2023-04-06T06:59:39.560Z,9.00
2023-04-06T07:02:09.602Z,9.60
2023-04-06T07:04:36.621Z,9.23
2023-04-06T07:07:04.780Z,8.70
2023-04-06T07:09:33.171Z,10.30
2023-04-06T07:12:00.186Z,8.97
2023-04-06T07:14:28.599Z,8.83
2023-04-06T07:16:56.487Z,10.13
2023-04-06T07:19:23.950Z,10.10
2023-04-06T07:21:51.380Z,9.90
2023-04-06T07:24:18.313Z,9.63
2023-04-06T07:26:45.246Z,8.97
2023-04-06T07:29:19.807Z,10.10
2023-04-06T07:31:47.429Z,10.47
2023-04-06T07:34:17.182Z,10.20
2023-04-06T07:36:44.612Z,10.57
2023-04-06T07:39:11.795Z,9.93
2023-04-06T07:41:39.249Z,10.60
2023-04-06T07:44:07.404Z,10.73
2023-04-06T07:46:35.632Z,10.33
2023-04-06T07:49:06.079Z,10.30
2023-04-06T07:51:38.208Z,10.60
2023-04-06T07:54:08.716Z,10.43
2023-04-06T07:56:36.761Z,9.90
2023-04-06T07:59:05.419Z,10.30
2023-04-06T08:01:35.074Z,10.63
2023-04-06T08:04:03.586Z,10.70
2023-04-06T08:06:30.717Z,10.47
2023-04-06T08:09:01.305Z,11.90
2023-04-06T08:11:28.917Z,11.00
2023-04-06T08:13:57.834Z,11.27
2023-04-06T08:16:29.020Z,11.27
2023-04-06T08:18:56.129Z,10.13
2023-04-06T08:21:24.762Z,10.50
2023-04-06T08:24:15.755Z,10.23
2023-04-06T08:27:05.245Z,9.00
2023-04-06T08:29:32.249Z,9.93
2023-04-06T08:31:59.115Z,9.70
2023-04-06T08:34:26.380Z,10.13
2023-04-06T08:36:53.670Z,9.63
2023-04-06T08:39:26.471Z,9.90
2023-04-06T08:41:54.389Z,10.43
2023-04-06T08:44:21.654Z,9.83
2023-04-06T08:46:48.944Z,9.10
2023-04-06T08:49:17.636Z,8.80
2023-04-06T08:51:44.943Z,8.87
2023-04-06T08:54:11.943Z,8.47
2023-04-06T08:56:40.755Z,8.40
2023-04-06T08:59:08.649Z,8.33
2023-04-06T09:01:40.029Z,8.27
2023-04-06T09:04:10.923Z,8.10
2023-04-06T09:06:38.823Z,9.20
2023-04-06T09:09:05.652Z,8.07
2023-04-06T09:11:44.518Z,7.97
2023-04-06T09:14:13.186Z,7.60
2023-04-06T09:16:48.687Z,8.03
2023-04-06T09:19:15.621Z,8.87
2023-04-06T09:21:42.717Z,8.77
2023-04-06T09:24:10.602Z,8.30
2023-04-06T09:26:48.410Z,8.00
2023-04-06T09:29:28.230Z,8.80
2023-04-06T09:32:11.258Z,8.03
2023-04-06T09:37:44.159Z,9.70
2023-04-06T09:40:15.038Z,9.50
2023-04-06T09:42:56.558Z,9.40
2023-04-06T09:45:27.364Z,8.63
2023-04-06T09:47:57.712Z,9.47
2023-04-06T09:50:35.467Z,9.17
2023-04-06T09:53:08.161Z,8.43
2023-04-06T09:55:41.904Z,9.17
2023-04-06T09:58:11.762Z,9.93
2023-04-06T10:01:06.845Z,9.83
2023-04-06T10:03:48.227Z,9.07
2023-04-06T10:06:16.283Z,8.83
2023-04-06T10:08:44.378Z,8.40
2023-04-06T10:11:14.659Z,8.67
2023-04-06T10:13:43.227Z,9.20
2023-04-06T10:16:10.514Z,8.70
2023-04-06T10:18:38.572Z,8.67
2023-04-06T10:21:10.330Z,9.33
2023-04-06T10:26:58.753Z,7.53
2023-04-06T10:29:26.153Z,7.80
2023-04-06T10:31:53.377Z,7.30
2023-04-06T10:34:20.316Z,8.50
2023-04-06T10:36:47.282Z,8.07
2023-04-06T10:39:14.269Z,7.73
2023-04-06T10:41:46.893Z,8.27
2023-04-06T10:44:24.863Z,7.30
2023-04-06T10:46:57.000Z,7.67
2023-04-06T10:49:27.325Z,7.90
2023-04-06T10:51:55.257Z,7.90
2023-04-06T10:54:23.776Z,7.53
2023-04-06T10:56:50.750Z,8.07
2023-04-06T10:59:24.728Z,7.40
2023-04-06T11:01:51.979Z,7.83
2023-04-06T11:04:19.773Z,7.63
2023-04-06T11:06:50.914Z,7.03
2023-04-06T11:09:50.572Z,7.50
2023-04-06T11:12:28.183Z,7.07
2023-04-06T11:15:10.611Z,8.17
2023-04-06T11:17:38.223Z,8.20
2023-04-06T11:20:06.780Z,7.97
2023-04-06T11:22:36.764Z,8.87
2023-04-06T11:25:07.795Z,8.40
2023-04-06T11:27:35.613Z,7.70
2023-04-06T11:30:04.143Z,7.73
2023-04-06T11:32:30.939Z,7.47
2023-04-06T11:34:59.103Z,7.67
2023-04-06T11:37:30.702Z,7.90
2023-04-06T11:40:00.988Z,7.60
2023-04-06T11:42:31.158Z,7.47
2023-04-06T11:44:59.708Z,7.63
2023-04-06T11:47:31.875Z,7.90
2023-04-06T11:50:10.614Z,7.20
2023-04-06T11:52:37.820Z,7.80
2023-04-06T11:55:18.713Z,7.70
2023-04-06T11:57:46.260Z,7.50
2023-04-06T12:00:13.843Z,7.73
2023-04-06T12:02:42.729Z,7.17
2023-04-06T12:05:12.059Z,8.03
2023-04-06T12:10:11.926Z,7.23
2023-04-06T12:12:39.284Z,7.37
2023-04-06T12:15:06.871Z,7.67
2023-04-06T12:17:33.651Z,7.53
2023-04-06T12:20:05.253Z,6.83
2023-04-06T12:22:32.852Z,7.57
2023-04-06T12:24:59.765Z,6.97
2023-04-06T12:27:26.740Z,7.03
2023-04-06T12:29:53.690Z,6.83
2023-04-06T12:32:21.786Z,7.70
2023-04-06T12:34:54.835Z,8.50
2023-04-06T12:37:22.019Z,7.10
2023-04-06T12:39:57.697Z,6.60
2023-04-06T12:42:26.020Z,6.70
2023-04-06T12:44:52.888Z,7.13
2023-04-06T12:47:19.849Z,7.23
2023-04-06T12:49:46.802Z,7.50
2023-04-06T12:52:13.837Z,7.60
2023-04-06T12:54:40.647Z,7.83
2023-04-06T12:57:08.579Z,6.80
2023-04-06T12:59:39.037Z,8.37
2023-04-06T13:02:06.583Z,7.10
2023-04-06T13:04:33.841Z,7.20
2023-04-06T13:07:03.082Z,7.33
2023-04-06T13:09:30.320Z,8.00
2023-04-06T13:12:00.744Z,7.57
2023-04-06T13:14:27.694Z,7.77
2023-04-06T13:16:55.342Z,7.50
2023-04-06T13:19:22.694Z,7.33
2023-04-06T13:21:49.577Z,7.43
2023-04-06T13:24:19.901Z,6.70
2023-04-06T13:26:47.066Z,8.00
2023-04-06T13:29:17.792Z,7.77
2023-04-06T13:31:44.769Z,8.10
2023-04-06T13:34:11.902Z,8.67
2023-04-06T13:37:11.360Z,7.80
2023-04-06T13:39:45.618Z,7.67
2023-04-06T13:42:12.754Z,8.23
2023-04-06T13:44:39.605Z,8.57
2023-04-06T13:47:07.477Z,8.23
2023-04-06T13:49:35.890Z,8.80
2023-04-06T13:52:02.893Z,8.90
2023-04-06T13:54:29.895Z,9.07
2023-04-06T13:56:57.869Z,8.73
2023-04-06T13:59:25.063Z,8.93
2023-04-06T14:01:52.237Z,8.73
2023-04-06T14:04:19.279Z,9.20
2023-04-06T14:06:47.095Z,8.53
2023-04-06T14:09:16.177Z,8.40
2023-04-06T14:11:46.465Z,8.73
2023-04-06T14:14:13.861Z,8.40
2023-04-06T14:16:41.233Z,9.43
2023-04-06T14:19:08.136Z,8.97
2023-04-06T14:21:35.364Z,8.53
2023-04-06T14:24:36.046Z,8.57
2023-04-06T14:27:28.055Z,8.85
2023-04-06T14:33:06.682Z,8.10
2023-04-06T14:35:33.682Z,8.80
2023-04-06T14:38:02.925Z,8.87
2023-04-06T14:40:29.967Z,8.80
2023-04-06T14:42:59.994Z,8.70
2023-04-06T14:45:29.694Z,8.20
2023-04-06T14:47:57.071Z,8.93
2023-04-06T14:50:29.525Z,8.50
2023-04-06T14:53:03.484Z,8.50
2023-04-06T14:55:31.531Z,9.67
2023-04-06T14:57:59.937Z,9.03
2023-04-06T15:00:27.525Z,8.33
2023-04-06T15:02:55.427Z,8.47
2023-04-06T15:05:22.564Z,9.00
2023-04-06T15:07:49.505Z,8.60
2023-04-06T15:10:18.349Z,9.07
2023-04-06T15:12:45.670Z,8.30
2023-04-06T15:15:12.593Z,8.33
2023-04-06T15:17:39.880Z,8.70
2023-04-06T15:20:07.358Z,8.77
2023-04-06T15:22:34.332Z,9.97
2023-04-06T15:25:01.135Z,10.20
2023-04-06T15:27:28.026Z,9.83
2023-04-06T15:29:55.487Z,11.00
2023-04-06T15:32:23.004Z,10.17
2023-04-06T15:34:49.870Z,10.13
2023-04-06T15:37:16.848Z,10.53
2023-04-06T15:39:44.465Z,9.63
2023-04-06T15:42:11.832Z,10.73
2023-04-06T15:44:38.861Z,9.93
2023-04-06T15:47:06.031Z,10.50
2023-04-06T15:49:33.104Z,10.37
2023-04-06T15:52:00.017Z,10.33
2023-04-06T15:54:27.167Z,11.03
2023-04-06T15:56:54.061Z,10.93
2023-04-06T15:59:20.899Z,11.07
2023-04-06T16:01:47.988Z,11.20
2023-04-06T16:04:15.282Z,11.20
2023-04-06T16:06:42.362Z,9.50
2023-04-06T16:09:09.589Z,10.33
2023-04-06T16:11:37.029Z,11.10
2023-04-06T16:14:04.347Z,10.80
2023-04-06T16:16:31.464Z,10.03
2023-04-06T16:18:58.359Z,10.53
2023-04-06T16:21:26.832Z,11.07
2023-04-06T16:23:55.528Z,10.13
2023-04-06T16:26:23.637Z,10.33
2023-04-06T16:28:51.590Z,10.20
2023-04-06T16:31:23.028Z,10.70
2023-04-06T16:33:51.377Z,10.27
2023-04-06T16:36:29.663Z,10.30
2023-04-06T16:38:57.686Z,9.53
2023-04-06T16:41:24.573Z,9.77
2023-04-06T16:43:52.038Z,9.37
2023-04-06T16:46:19.174Z,10.93
2023-04-06T16:48:46.187Z,9.97
2023-04-06T16:51:13.195Z,9.60
2023-04-06T16:53:40.091Z,11.20
2023-04-06T16:58:37.887Z,10.73
2023-04-06T17:01:05.959Z,10.40
2023-04-06T17:03:34.643Z,10.07
2023-04-06T17:06:01.600Z,9.63
2023-04-06T17:08:28.508Z,8.97
2023-04-06T17:10:59.483Z,10.70
2023-04-06T17:13:30.607Z,9.37
2023-04-06T17:15:57.431Z,10.37
2023-04-06T17:18:24.581Z,10.10
2023-04-06T17:20:51.515Z,9.50
2023-04-06T17:23:18.457Z,9.90
2023-04-06T17:25:45.229Z,9.60
2023-04-06T17:28:13.416Z,9.13
2023-04-06T17:30:42.032Z,9.07
2023-04-06T17:33:09.632Z,10.13
2023-04-06T17:35:36.515Z,9.50
2023-04-06T17:38:03.382Z,9.97
2023-04-06T17:40:30.314Z,10.87
2023-04-06T17:42:57.051Z,10.03
2023-04-06T17:45:24.085Z,10.80
2023-04-06T17:47:50.957Z,11.00
2023-04-06T17:50:18.605Z,11.03
2023-04-06T17:55:17.865Z,9.70
2023-04-06T17:57:46.244Z,11.10
2023-04-06T18:00:15.397Z,11.17
2023-04-06T18:02:42.520Z,11.23
2023-04-06T18:05:10.129Z,11.27
2023-04-06T18:07:37.398Z,11.50
2023-04-06T18:10:04.769Z,12.60
2023-04-06T18:12:31.461Z,11.93
2023-04-06T18:14:58.635Z,11.70
2023-04-06T18:17:25.963Z,11.13
2023-04-06T18:19:52.866Z,11.57
2023-04-06T18:22:20.533Z,10.37
2023-04-06T18:24:47.757Z,10.27
2023-04-06T18:27:14.713Z,11.20
2023-04-06T18:29:44.281Z,11.53
2023-04-06T18:32:11.075Z,11.33
2023-04-06T18:34:43.137Z,10.20
2023-04-06T18:37:13.159Z,11.23
2023-04-06T18:39:40.241Z,10.50
2023-04-06T18:42:08.161Z,9.87
2023-04-06T18:44:35.077Z,8.60
2023-04-06T18:47:02.082Z,9.47
2023-04-06T18:49:29.701Z,8.77
2023-04-06T18:52:00.160Z,6.57
2023-04-06T18:54:28.649Z,7.03
2023-04-06T18:56:56.301Z,6.43
2023-04-06T18:59:23.792Z,6.07
2023-04-06T19:01:54.155Z,6.07
2023-04-06T19:04:22.133Z,6.50
2023-04-06T19:06:49.789Z,5.70
2023-04-06T19:09:17.186Z,6.00
2023-04-06T19:11:44.144Z,6.77
2023-04-06T19:14:11.034Z,5.67
2023-04-06T19:16:41.278Z,5.60
2023-04-06T19:19:08.436Z,6.73
2023-04-06T19:21:35.408Z,5.13
2023-04-06T19:24:02.539Z,5.40
2023-04-06T19:26:30.609Z,5.70
2023-04-06T19:29:07.977Z,5.40
2023-04-06T19:31:41.745Z,5.03
2023-04-06T19:34:12.001Z,5.07
2023-04-06T19:36:38.824Z,4.77
2023-04-06T19:39:08.428Z,4.70
2023-04-06T19:41:37.399Z,3.53
2023-04-06T19:44:04.217Z,3.93
2023-04-06T19:46:34.013Z,3.20
2023-04-06T19:49:01.671Z,4.03
2023-04-06T19:51:34.932Z,3.90
2023-04-06T19:54:03.428Z,3.37
2023-04-06T19:56:31.627Z,4.30
2023-04-06T19:59:00.777Z,4.60
2023-04-06T20:01:28.603Z,4.80
2023-04-06T20:03:55.488Z,5.37
2023-04-06T20:06:22.394Z,5.17
2023-04-06T20:08:49.433Z,5.20
2023-04-06T20:11:18.260Z,5.30
2023-04-06T20:13:45.364Z,5.30
2023-04-06T20:16:12.196Z,6.03
2023-04-06T20:18:39.032Z,6.30
2023-04-06T20:21:06.325Z,6.10
2023-04-06T20:23:35.277Z,6.17
2023-04-06T20:26:02.162Z,6.43
2023-04-06T20:28:28.935Z,6.20
2023-04-06T20:30:56.091Z,6.70
2023-04-06T20:33:24.151Z,5.70
2023-04-06T20:36:01.489Z,5.80
2023-04-06T20:40:59.928Z,6.23
2023-04-06T20:43:28.936Z,5.97
2023-04-06T20:45:59.606Z,5.57
2023-04-06T20:48:26.781Z,6.47
2023-04-06T20:50:53.915Z,6.13
2023-04-06T20:53:21.300Z,5.73
2023-04-06T20:55:48.370Z,6.10
2023-04-06T20:58:17.975Z,6.10
2023-04-06T21:00:49.840Z,6.07
2023-04-06T21:03:18.093Z,6.17
2023-04-06T21:05:57.386Z,6.33
2023-04-06T21:08:24.290Z,5.57
2023-04-06T21:10:51.123Z,5.03
2023-04-06T21:13:18.677Z,5.63
2023-04-06T21:15:47.696Z,4.90
2023-04-06T21:18:14.652Z,5.53
2023-04-06T21:20:41.762Z,4.80
2023-04-06T21:23:08.695Z,4.97
2023-04-06T21:25:39.072Z,5.00
2023-04-06T21:28:06.423Z,4.50
2023-04-06T21:30:37.261Z,4.43
2023-04-06T21:33:05.302Z,4.97
2023-04-06T21:35:32.908Z,5.37
2023-04-06T21:38:00.273Z,4.53
2023-04-06T21:40:27.173Z,4.70
2023-04-06T21:42:53.973Z,3.97
2023-04-06T21:45:20.887Z,4.77
2023-04-06T21:47:47.712Z,3.83
2023-04-06T21:50:14.586Z,3.37
2023-04-06T21:52:41.538Z,4.37
2023-04-06T21:55:10.158Z,3.87
2023-04-06T21:57:37.247Z,4.00
2023-04-06T22:00:10.140Z,3.97
2023-04-06T22:02:46.145Z,3.63
2023-04-06T22:05:13.429Z,3.80
2023-04-06T22:07:57.305Z,3.63
2023-04-06T22:10:31.495Z,3.83
2023-04-06T22:12:58.384Z,3.53
2023-04-06T22:15:25.345Z,4.27
2023-04-06T22:17:52.167Z,4.17
2023-04-06T22:20:19.283Z,3.83
2023-04-06T22:22:46.009Z,4.40
2023-04-06T22:25:13.341Z,4.87
2023-04-06T22:27:40.083Z,5.70
2023-04-06T22:30:08.135Z,5.80
2023-04-06T22:32:34.836Z,5.37
2023-04-06T22:35:01.656Z,6.10
2023-04-06T22:37:29.208Z,6.40
2023-04-06T22:39:56.199Z,5.97
2023-04-06T22:42:23.426Z,5.43
2023-04-06T22:44:50.549Z,5.10
2023-04-06T22:47:17.725Z,5.77
2023-04-06T22:49:44.670Z,5.77
2023-04-06T22:52:11.874Z,5.60
2023-04-06T22:54:39.057Z,5.40
2023-04-06T22:57:05.989Z,5.63
2023-04-06T22:59:32.743Z,6.37
2023-04-06T23:01:59.719Z,6.17
2023-04-06T23:04:26.738Z,5.17
2023-04-06T23:06:53.720Z,5.53
2023-04-06T23:09:20.605Z,5.30
2023-04-06T23:11:47.729Z,5.37
2023-04-06T23:14:14.878Z,5.00
2023-04-06T23:16:42.015Z,4.97
2023-04-06T23:19:08.803Z,4.97
2023-04-06T23:21:35.637Z,4.80
2023-04-06T23:24:02.689Z,5.80
2023-04-06T23:26:29.865Z,4.80
2023-04-06T23:28:56.618Z,4.93
2023-04-06T23:31:23.528Z,4.03
2023-04-06T23:33:50.393Z,4.73
2023-04-06T23:36:17.309Z,4.00
2023-04-06T23:38:44.094Z,5.30
2023-04-06T23:41:14.312Z,5.10
2023-04-06T23:43:41.231Z,4.90
2023-04-06T23:46:08.169Z,5.23
2023-04-06T23:48:35.040Z,5.13
2023-04-06T23:51:02.130Z,5.47
2023-04-06T23:53:29.020Z,5.20
2023-04-06T23:55:55.983Z,5.43
2023-04-06T23:58:22.904Z,6.57
